ADDS METAR Data INFO
IDs: Format: Raw Decoded Include TAF

Data at: 0038 UTC 23 Feb 2018

KSWW 230015Z AUTO 19003KT 1 1/4SM OVC003 03/03 A3019 RMK AO2 T00250025
KSWW 222355Z AUTO 17004KT 1 1/2SM OVC003 03/03 A3018 RMK AO2 T00250025 10025 21009
KSWW 222335Z AUTO 00000KT 2 1/2SM OVC003 02/02 A3018 RMK AO2 T00220022
KSWW 222315Z AUTO 19003KT 7SM OVC003 02/02 A3017 RMK AO2 T00220022
KSWW 222255Z AUTO 16004KT 5SM OVC003 02/02 A3018 RMK AO2 T00210021
KSWW 222235Z AUTO 14003KT 5SM OVC003 02/02 A3017 RMK AO2 T00190019
KSWW 222215Z AUTO 00000KT 5SM OVC003 02/02 A3016 RMK AO2 T00160016
KSWW 222155Z AUTO 00000KT 7SM OVC003 02/02 A3017 RMK AO2 T00160016
KSWW 222135Z AUTO 00000KT 7SM OVC003 01/01 A3017 RMK AO2 T00140014
KSWW 222115Z AUTO 00000KT 3SM OVC003 01/01 A3018 RMK AO2 T00100010
KSWW 222055Z AUTO 00000KT 4SM OVC005 01/01 A3019 RMK AO2 T00060006
KSWW 222035Z AUTO 00000KT 5SM OVC005 01/01 A3019 RMK AO2 T00050005
KSWW 222015Z AUTO 00000KT 3/4SM OVC005 00/00 A3020 RMK AO2 VIS M1/4V5 T00040004
KSWW 221955Z AUTO 00000KT 5SM BKN007 OVC016 00/00 A3021 RMK AO2 T00000000
KSWW 221935Z AUTO 00000KT 3SM BKN005 BKN010 OVC016 00/00 A3022 RMK AO2 T00000000
KSWW 221915Z AUTO 00000KT 2SM OVC003 00/00 A3024 RMK AO2 LTG DSNT NE T10021002
KSWW 221855Z AUTO 00000KT 1 3/4SM OVC003 00/00 A3024 RMK AO2 T10051005
KSWW 221835Z AUTO 00000KT 2SM OVC003 00/00 A3026 RMK AO2 T10051005
KSWW 221815Z AUTO 00000KT 2SM OVC003 M01/M01 A3026 RMK AO2 T10071007
KSWW 221755Z AUTO 00000KT 3SM OVC003 M01/M01 A3026 RMK AO2 60008 T10081008 11008 21025
KSWW 221735Z AUTO 00000KT 2SM OVC003 M01/M01 A3026 RMK AO2 T10101010
KSWW 221715Z AUTO 00000KT 2 1/2SM OVC003 M01/M01 A3026 RMK AO2 T10111011
KSWW 221655Z AUTO 35003KT 2SM OVC003 M01/M01 A3027 RMK AO2 LTG DSNT NE T10141014
KSWW 221635Z AUTO 02003KT 2SM OVC003 M01/M01 A3027 RMK AO2 LTG DSNT NE T10151015
KSWW 221615Z AUTO 35004KT 2SM OVC003 M01/M01 A3026 RMK AO2 T10151015
KSWW 221555Z AUTO 03003KT 3SM OVC003 M02/M02 A3026 RMK AO2 T10171017
KSWW 221535Z AUTO 03004KT 4SM OVC003 M02/M02 A3026 RMK AO2 T10171017
KSWW 221515Z AUTO 02004KT 2 1/2SM OVC003 M02/M02 A3026 RMK AO2 T10191019
KSWW 221455Z AUTO 01004KT 1 3/4SM OVC005 M02/M02 A3026 RMK AO2 60008 T10201020
KSWW 221435Z AUTO 02004KT 1 1/2SM OVC005 M02/M02 A3026 RMK AO2 LTG DSNT E T10191019
KSWW 221415Z AUTO 01003KT 2SM OVC006 M02/M02 A3027 RMK AO2 T10211021
KSWW 221355Z AUTO 01005KT 5SM OVC004 M02/M02 A3026 RMK AO2 LTG DSNT NE T10201020
KSWW 221335Z AUTO 01004KT 4SM BKN004 OVC008 M02/M02 A3026 RMK AO2 LTG DSNT E T10211021
KSWW 221315Z AUTO 01004KT 7SM VCTS OVC004 M02/M02 A3025 RMK AO2 LTG DSNT NE T10211021
KSWW 221255Z AUTO 36005KT 3SM TS OVC002 M02/M02 A3024 RMK AO2 LTG DSNT NE THRU SE P0008 T10201020
KSWW 221235Z AUTO 33004KT 2 1/2SM OVC002 M02/M02 A3026 RMK AO2 LTG DSNT E THRU SW T10251025
KSWW 221215Z AUTO 01005KT 1 1/4SM OVC002 M02/M02 A3023 RMK AO2 LTG DSNT SW T10251025
KSWW 221155Z AUTO 36006KT 2SM OVC002 M02/M02 A3024 RMK AO2 LTG DSNT E 70029 T10251025 11025 21034
KSWW 221135Z AUTO 02006KT 1 3/4SM OVC002 M03/M03 A3024 RMK AO2 T10261026
KSWW 221115Z AUTO 01005KT 5SM OVC002 M03/M03 A3024 RMK AO2 T10261026
KSWW 221055Z AUTO 36008KT 5SM OVC002 M03/M03 A3024 RMK AO2 T10261026
KSWW 221035Z AUTO 01006KT 3SM OVC002 M03/M03 A3025 RMK AO2 T10261026
KSWW 221015Z AUTO 36008KT 2 1/2SM OVC002 M02/M02 A3023 RMK AO2 T10251025
KSWW 220955Z AUTO 34005KT 2 1/2SM OVC002 M03/M03 A3026 RMK AO2 T10281028
KSWW 220935Z AUTO 34003KT 3SM OVC002 M03/M03 A3028 RMK AO2 T10281028
KSWW 220915Z AUTO 36005KT 3SM OVC002 M03/M03 A3028 RMK AO2 T10291029
KSWW 220855Z AUTO 36004KT 3SM OVC002 M03/M03 A3028 RMK AO2 T10281028
KSWW 220835Z AUTO 02003KT 3SM OVC002 M03/M03 A3028 RMK AO2 T10301030
KSWW 220815Z AUTO 03004KT 3SM OVC002 M03/M03 A3028 RMK AO2 T10301030
KSWW 220755Z AUTO 04004KT 1 3/4SM OVC002 M03/M03 A3027 RMK AO2 T10301030
KSWW 220735Z AUTO 03003KT 1 1/4SM OVC002 M03/M03 A3028 RMK AO2 T10311031
KSWW 220715Z AUTO 03004KT 1 1/4SM OVC002 M03/M03 A3027 RMK AO2 T10321032
KSWW 220655Z AUTO 04006KT 1 3/4SM OVC002 M03/M03 A3027 RMK AO2 T10321032
KSWW 220635Z AUTO 03005KT 1 1/2SM OVC002 M03/M03 A3028 RMK AO2 T10331033
KSWW 220615Z AUTO 02006KT 1 1/4SM OVC002 M03/M03 A3028 RMK AO2 T10331033
KSWW 220555Z AUTO 02006KT 1 1/4SM OVC002 M03/M03 A3028 RMK AO2 T10331033 11033 21037 400171046
KSWW 220535Z AUTO 04006KT 1SM OVC002 M03/M03 A3029 RMK AO2 T10331033
KSWW 220515Z AUTO 03005KT 1 1/2SM OVC002 M03/M03 A3029 RMK AO2 T10351035
KSWW 220455Z AUTO 03004KT 1 3/4SM OVC002 M03/M03 A3030 RMK AO2 T10351035
KSWW 220435Z AUTO 02007KT 2SM OVC002 M04/M04 A3031 RMK AO2 T10361036
KSWW 220415Z AUTO 01005KT 2 1/2SM OVC004 M04/M04 A3031 RMK AO2 T10361036
KSWW 220355Z AUTO 02006KT 4SM BKN004 OVC008 M04/M04 A3031 RMK AO2 T10371037
KSWW 220035Z AUTO 01008KT 10SM BKN004 OVC009 M03/M03 A3031 RMK AO2 T10351035
KSWW 220015Z AUTO 02007KT 10SM OVC004 M03/M03 A3031 RMK AO2 T10351035
KSWW 212355Z AUTO 01009KT 10SM BKN006 OVC010 M03/M03 A3031 RMK AO2 60001 T10351035 11029 21040
KSWW 212335Z AUTO 35008KT 7SM BKN006 OVC010 M04/M04 A3031 RMK AO2 LTG DSNT SE T10361036
KSWW 212315Z AUTO 36006KT 3SM OVC009 M03/M03 A3031 RMK AO2 LTG DSNT E T10351035
KSWW 212255Z AUTO 34008KT 2 1/2SM OVC008 M04/M04 A3032 RMK AO2 T10371037
KSWW 212235Z AUTO 33007KT 3SM OVC008 M04/M04 A3032 RMK AO2 T10371037
KSWW 212215Z AUTO 32009KT 2 1/2SM OVC008 M04/M04 A3032 RMK AO2 LTG DSNT E T10361036
KSWW 212155Z AUTO 32010KT 2SM BKN006 OVC011 M04/M04 A3032 RMK AO2 T10371037
KSWW 212135Z AUTO 32010KT 1 1/2SM OVC008 M04/M04 A3032 RMK AO2 T10381042
KSWW 212115Z AUTO 32009KT 3SM OVC008 M04/M05 A3032 RMK AO2 T10391047
KSWW 212055Z AUTO 31011KT 5SM OVC010 M04/M05 A3031 RMK AO2 60001 T10391050
KSWW 212035Z AUTO 33011KT 10SM OVC010 M04/M05 A3031 RMK AO2 T10371052
KSWW 212015Z AUTO 34011KT 10SM OVC010 M04/M05 A3030 RMK AO2 LTG DSNT E T10401053
KSWW 211955Z AUTO 33010G15KT 10SM OVC010 M04/M05 A3030 RMK AO2 LTG DSNT E T10401052
KSWW 211935Z AUTO 34012KT 10SM OVC010 M04/M05 A3029 RMK AO2 LTG DSNT E T10391054
KSWW 211915Z AUTO 35012KT 10SM OVC010 M04/M05 A3030 RMK AO2 LTG DSNT E T10371051
KSWW 211835Z AUTO 35010KT 7SM BKN008 OVC014 M03/M04 A3030 RMK AO2 P0001 T10311039
KSWW 211815Z AUTO 34012G17KT 3SM BKN008 OVC014 M03/M04 A3029 RMK AO2 LTG DSNT E AND SE P0001 T10301037
KSWW 211755Z AUTO 35010KT 3/4SM OVC006 M03/M03 A3031 RMK AO2 LTG DSNT E P0004 60028 T10311031 11024 21046
KSWW 211735Z AUTO 35011G20KT 3SM BKN008 OVC013 M03/M03 A3029 RMK AO2 LTG DSNT E P0004 T10331034
KSWW 211715Z AUTO 35011G15KT 10SM OVC008 M04/M04 A3033 RMK AO2 T10371043
KSWW 211655Z AUTO 36012G21KT 10SM OVC008 M04/M04 A3028 RMK AO2 LTG DSNT E AND S T10381045
KSWW 211635Z AUTO 35011KT 5SM OVC008 M04/M04 A3029 RMK AO2 T10391039
KSWW 211615Z AUTO 36013G17KT 3SM OVC010 M04/M04 A3028 RMK AO2 LTG DSNT E T10381038
KSWW 211555Z AUTO 35010G17KT 10SM OVC010 M04/M04 A3029 RMK AO2 LTG DSNT E AND SE T10401040
KSWW 211535Z AUTO 36011KT 1 1/2SM OVC010 M04/M04 A3029 RMK AO2 LTG DSNT NE THRU SE T10411041
KSWW 211515Z AUTO 35012KT 3/4SM BKN006 OVC010 M04/M04 A3030 RMK AO2 LTG DSNT NE THRU SE T10401040
KSWW 211455Z AUTO 35013G20KT 2 1/2SM VCTS SCT006 OVC018 M04/M04 A3027 RMK AO2 LTG DSNT NE THRU S P0004 60024 T10421043
KSWW 211435Z AUTO 02013G21KT 5SM OVC018 M05/M06 A3026 RMK AO2 LTG DSNT E AND S P0001 T10461056
KSWW 211415Z AUTO 36015G22KT 5SM SCT010 OVC018 M04/M05 A3027 RMK AO2 LTG DSNT E SE AND NW T10451053
KSWW 211355Z AUTO 35011G18KT 5SM TS SCT010 OVC018 M04/M05 A3031 RMK AO2 LTG DSNT E THRU S P0016 T10431048
KSWW 211335Z AUTO 02011KT 2SM VCTS BKN012 OVC018 M04/M05 A3028 RMK AO2 LTG DSNT N THRU S P0011 T10401047
KSWW 211315Z AUTO 02007KT 2SM TS BKN010 OVC018 M04/M04 A3032 RMK AO2 LTG DSNT ALQS P0001 T10371037
KSWW 211255Z AUTO 01012KT 1 3/4SM VCTS BKN008 BKN013 OVC018 M04/M04 A3026 RMK AO2 LTG DSNT SE THRU NW P0004 T10371039